createdAt,value
2018-03-24T00:01:26.000Z,5.60
2018-03-24T00:03:53.471Z,5.60
2018-03-24T00:06:20.915Z,5.60
2018-03-24T00:08:48.369Z,5.60
2018-03-24T00:11:15.803Z,5.50
2018-03-24T00:13:43.242Z,5.60
2018-03-24T00:16:10.704Z,5.60
2018-03-24T00:18:38.902Z,5.70
2018-03-24T00:21:06.358Z,5.60
2018-03-24T00:23:33.810Z,5.60
2018-03-24T00:26:01.264Z,5.60
2018-03-24T00:28:28.698Z,5.60
2018-03-24T00:30:56.153Z,5.60
2018-03-24T00:33:23.591Z,5.50
2018-03-24T00:35:52.071Z,5.50
2018-03-24T00:38:19.497Z,5.50
2018-03-24T00:40:47.727Z,5.40
2018-03-24T00:43:15.944Z,5.30
2018-03-24T00:45:43.391Z,5.30
2018-03-24T00:48:10.826Z,5.40
2018-03-24T00:50:39.047Z,5.30
2018-03-24T00:53:06.483Z,5.30
2018-03-24T00:55:33.927Z,5.30
2018-03-24T00:58:02.130Z,5.30
2018-03-24T01:00:29.580Z,5.30
2018-03-24T01:02:57.778Z,5.30
2018-03-24T01:05:25.225Z,5.30
2018-03-24T01:07:53.447Z,5.20
2018-03-24T01:10:20.883Z,5.30
2018-03-24T01:12:48.336Z,5.30
2018-03-24T01:15:15.774Z,5.30
2018-03-24T01:17:43.235Z,5.40
2018-03-24T01:20:10.670Z,5.40
2018-03-24T01:22:38.118Z,5.40
2018-03-24T01:25:05.557Z,5.40
2018-03-24T01:27:33.013Z,5.40
2018-03-24T01:30:00.446Z,5.30
2018-03-24T01:32:28.665Z,5.20
2018-03-24T01:34:56.111Z,5.20
2018-03-24T01:37:23.567Z,5.20
2018-03-24T01:39:51.766Z,5.20
2018-03-24T01:42:19.241Z,5.20
2018-03-24T01:44:46.681Z,5.30
2018-03-24T01:47:14.114Z,5.30
2018-03-24T01:49:41.565Z,5.30
2018-03-24T01:52:09.019Z,5.30
2018-03-24T01:54:36.464Z,5.20
2018-03-24T01:57:03.901Z,5.30
2018-03-24T01:59:31.354Z,5.30
2018-03-24T02:01:58.801Z,5.30
2018-03-24T02:04:27.021Z,5.40
2018-03-24T02:06:54.459Z,5.40
2018-03-24T02:09:22.679Z,5.30
2018-03-24T02:11:50.156Z,5.30
2018-03-24T02:14:17.574Z,5.30
2018-03-24T02:16:45.022Z,5.40
2018-03-24T02:19:12.467Z,5.40
2018-03-24T02:21:43.308Z,5.50
2018-03-24T02:24:10.735Z,5.50
2018-03-24T02:26:38.186Z,5.50
2018-03-24T02:29:05.639Z,5.50
2018-03-24T02:31:33.077Z,5.50
2018-03-24T02:34:00.534Z,5.40
2018-03-24T02:36:28.743Z,5.40
2018-03-24T02:38:56.236Z,5.40
2018-03-24T02:41:23.679Z,5.40
2018-03-24T02:43:51.129Z,5.40
2018-03-24T02:46:18.569Z,5.40
2018-03-24T02:48:46.015Z,5.40
2018-03-24T02:51:14.218Z,5.40
2018-03-24T02:53:41.667Z,5.40
2018-03-24T02:56:09.865Z,5.40
2018-03-24T02:58:37.305Z,5.40
2018-03-24T03:01:05.506Z,5.40
2018-03-24T03:03:32.959Z,5.40
2018-03-24T03:06:00.399Z,5.40
2018-03-24T03:08:28.611Z,5.50
2018-03-24T03:10:56.064Z,5.40
2018-03-24T03:13:23.513Z,5.50
2018-03-24T03:15:51.723Z,5.50
2018-03-24T03:18:19.179Z,5.50
2018-03-24T03:20:46.630Z,5.50
2018-03-24T03:23:14.852Z,5.50
2018-03-24T03:25:42.270Z,5.50
2018-03-24T03:28:09.715Z,5.50
2018-03-24T03:30:53.694Z,5.50
2018-03-24T03:33:21.137Z,5.50
2018-03-24T03:35:48.575Z,5.50
2018-03-24T03:38:16.803Z,5.50
2018-03-24T03:40:44.242Z,5.50
2018-03-24T03:43:11.702Z,5.50
2018-03-24T03:45:39.184Z,5.50
2018-03-24T03:48:06.633Z,5.50
2018-03-24T03:50:34.087Z,5.50
2018-03-24T03:53:01.523Z,5.60
2018-03-24T03:55:28.970Z,5.60
2018-03-24T03:57:56.410Z,5.60
2018-03-24T04:00:23.857Z,5.60
2018-03-24T04:02:51.315Z,5.60
2018-03-24T04:05:18.773Z,5.60
2018-03-24T04:07:46.215Z,5.60
2018-03-24T04:10:14.423Z,5.50
2018-03-24T04:12:41.890Z,5.50
2018-03-24T04:15:09.351Z,5.60
2018-03-24T04:17:36.784Z,5.50
2018-03-24T04:20:05.010Z,5.60
2018-03-24T04:22:32.442Z,5.50
2018-03-24T04:24:59.894Z,5.60
2018-03-24T04:27:27.336Z,5.60
2018-03-24T04:29:54.782Z,5.60
2018-03-24T04:32:22.229Z,5.60
2018-03-24T04:34:49.683Z,5.60
2018-03-24T04:37:17.122Z,5.60
2018-03-24T04:39:44.585Z,5.60
2018-03-24T04:42:12.031Z,5.60
2018-03-24T04:44:39.471Z,5.60
2018-03-24T04:47:06.935Z,5.60
2018-03-24T04:49:34.379Z,5.50
2018-03-24T04:52:01.822Z,5.60
2018-03-24T04:54:29.268Z,5.50
2018-03-24T04:56:56.723Z,5.60
2018-03-24T04:59:24.154Z,5.60
2018-03-24T05:01:52.382Z,5.60
2018-03-24T05:04:19.846Z,5.60
2018-03-24T05:06:47.291Z,5.60
2018-03-24T05:09:14.762Z,5.60
2018-03-24T05:11:42.229Z,5.60
2018-03-24T05:14:09.682Z,5.60
2018-03-24T05:16:37.114Z,5.60
2018-03-24T05:19:05.336Z,5.60
2018-03-24T05:21:32.764Z,5.50
2018-03-24T05:24:00.223Z,5.50
2018-03-24T05:26:28.431Z,5.60
2018-03-24T05:28:55.880Z,5.50
2018-03-24T05:31:24.082Z,5.60
2018-03-24T05:33:51.527Z,5.60
2018-03-24T05:36:18.979Z,5.60
2018-03-24T05:38:46.422Z,5.60
2018-03-24T05:41:14.648Z,5.60
2018-03-24T05:43:42.096Z,5.50
2018-03-24T05:46:09.540Z,5.60
2018-03-24T05:48:37.853Z,5.60
2018-03-24T05:51:05.217Z,5.60
2018-03-24T05:53:32.665Z,5.60
2018-03-24T05:56:00.119Z,5.60
2018-03-24T05:58:27.588Z,5.60
2018-03-24T06:00:55.062Z,5.60
2018-03-24T06:03:22.498Z,5.60
2018-03-24T06:05:50.702Z,5.50
2018-03-24T06:08:18.160Z,5.50
2018-03-24T06:10:47.006Z,5.60
2018-03-24T06:13:14.506Z,5.60
2018-03-24T06:15:41.911Z,5.50
2018-03-24T06:18:09.342Z,5.60
2018-03-24T06:20:36.780Z,5.60
2018-03-24T06:23:04.221Z,5.60
2018-03-24T06:25:31.654Z,5.60
2018-03-24T06:27:59.098Z,5.60
2018-03-24T06:30:30.158Z,5.60
2018-03-24T06:32:57.620Z,5.60
2018-03-24T06:35:25.061Z,5.60
2018-03-24T06:37:52.494Z,5.60
2018-03-24T06:40:20.718Z,5.60
2018-03-24T06:42:48.150Z,5.60
2018-03-24T06:45:15.629Z,5.60
2018-03-24T06:47:43.062Z,5.60
2018-03-24T06:50:11.295Z,5.60
2018-03-24T06:52:38.732Z,5.60
2018-03-24T06:55:06.193Z,5.60
2018-03-24T06:57:34.412Z,5.70
2018-03-24T07:00:01.852Z,5.70
2018-03-24T07:02:29.301Z,5.70
2018-03-24T07:04:56.754Z,5.70
2018-03-24T07:07:24.186Z,5.70
2018-03-24T07:09:52.438Z,5.70
2018-03-24T07:12:19.874Z,5.70
2018-03-24T07:14:47.318Z,5.70
2018-03-24T07:17:14.790Z,5.70
2018-03-24T07:19:42.228Z,5.80
2018-03-24T07:22:10.451Z,5.80
2018-03-24T07:24:37.922Z,5.80
2018-03-24T07:27:05.375Z,5.80
2018-03-24T07:29:32.822Z,5.80
2018-03-24T07:32:00.276Z,5.90
2018-03-24T07:34:27.745Z,5.90
2018-03-24T07:36:55.203Z,5.90
2018-03-24T07:39:22.638Z,5.90
2018-03-24T07:41:50.847Z,5.90
2018-03-24T07:44:18.350Z,5.90
2018-03-24T07:46:45.798Z,5.90
2018-03-24T07:49:13.258Z,6.00
2018-03-24T07:51:40.698Z,6.00
2018-03-24T07:54:08.142Z,6.00
2018-03-24T07:56:35.587Z,6.00
2018-03-24T07:59:03.802Z,6.10
2018-03-24T08:01:31.240Z,6.10
2018-03-24T08:03:59.459Z,6.20
2018-03-24T08:06:26.916Z,6.10
2018-03-24T08:08:54.363Z,6.20
2018-03-24T08:11:21.810Z,6.20
2018-03-24T08:13:50.112Z,6.30
2018-03-24T08:16:17.545Z,6.30
2018-03-24T08:18:45.787Z,6.30
2018-03-24T08:21:13.261Z,6.30
2018-03-24T08:23:40.720Z,6.30
2018-03-24T08:26:08.171Z,6.30
2018-03-24T08:28:35.654Z,6.30
2018-03-24T08:31:03.118Z,6.40
2018-03-24T08:33:30.578Z,6.40
2018-03-24T08:35:58.058Z,6.40
2018-03-24T08:38:26.291Z,6.50
2018-03-24T08:40:53.711Z,6.50
2018-03-24T08:43:21.917Z,6.50
2018-03-24T08:45:49.354Z,6.50
2018-03-24T08:48:17.590Z,6.60
2018-03-24T08:50:45.039Z,6.60
2018-03-24T08:53:12.483Z,6.60
2018-03-24T08:55:39.923Z,6.60
2018-03-24T08:58:08.126Z,6.60
2018-03-24T09:00:35.565Z,6.60
2018-03-24T09:03:03.785Z,6.60
2018-03-24T09:05:31.230Z,6.60
2018-03-24T09:07:58.715Z,6.60
2018-03-24T09:10:26.192Z,6.80
2018-03-24T09:12:53.654Z,6.90
2018-03-24T09:15:21.109Z,6.80
2018-03-24T09:17:48.563Z,6.80
2018-03-24T09:20:16.029Z,6.80
2018-03-24T09:22:43.480Z,6.90
2018-03-24T09:25:10.939Z,6.90
2018-03-24T09:27:38.395Z,7.00
2018-03-24T09:30:05.866Z,7.00
2018-03-24T09:32:34.265Z,6.90
2018-03-24T09:35:02.619Z,6.90
2018-03-24T09:37:30.834Z,6.90
2018-03-24T09:39:58.268Z,6.90
2018-03-24T09:42:26.132Z,6.90
2018-03-24T09:44:53.616Z,7.00
2018-03-24T09:47:21.085Z,7.00
2018-03-24T09:49:48.543Z,7.00
2018-03-24T09:52:16.003Z,7.00
2018-03-24T09:54:43.490Z,7.10
2018-03-24T09:57:10.956Z,7.10
2018-03-24T09:59:38.401Z,7.20
2018-03-24T10:02:05.854Z,7.20
2018-03-24T10:04:33.307Z,7.20
2018-03-24T10:07:00.759Z,7.20
2018-03-24T10:09:28.228Z,7.20
2018-03-24T10:11:55.709Z,7.30
2018-03-24T10:14:23.980Z,7.50
2018-03-24T10:16:51.431Z,7.50
2018-03-24T10:19:18.881Z,7.60
2018-03-24T10:24:46.688Z,7.60
2018-03-24T10:27:14.158Z,7.70
2018-03-24T10:29:41.617Z,7.80
2018-03-24T10:32:09.075Z,8.00
2018-03-24T10:34:36.543Z,8.10
2018-03-24T10:37:04.019Z,8.10
2018-03-24T10:39:31.454Z,8.20
2018-03-24T10:41:58.918Z,8.10
2018-03-24T10:44:26.364Z,8.10
2018-03-24T10:46:53.810Z,8.10
2018-03-24T10:49:22.042Z,8.00
2018-03-24T10:51:49.486Z,8.00
2018-03-24T10:54:16.947Z,8.00
2018-03-24T10:56:44.383Z,8.10
2018-03-24T10:59:12.591Z,8.10
2018-03-24T11:01:40.062Z,8.10
2018-03-24T11:04:07.629Z,8.10
2018-03-24T11:06:35.068Z,8.10
2018-03-24T11:09:02.539Z,8.10
2018-03-24T11:11:30.004Z,8.10
2018-03-24T11:13:57.504Z,8.30
2018-03-24T11:16:24.970Z,8.40
2018-03-24T11:18:52.425Z,8.50
2018-03-24T11:21:19.887Z,8.30
2018-03-24T11:23:47.340Z,8.40
2018-03-24T11:26:14.785Z,8.40
2018-03-24T11:28:42.264Z,8.40
2018-03-24T11:31:09.709Z,8.40
2018-03-24T11:33:37.172Z,8.50
2018-03-24T11:36:04.631Z,8.50
2018-03-24T11:38:32.069Z,8.60
2018-03-24T11:41:00.291Z,8.60
2018-03-24T11:43:27.744Z,8.60
2018-03-24T11:45:55.210Z,8.60
2018-03-24T11:48:22.676Z,8.80
2018-03-24T11:50:50.290Z,8.70
2018-03-24T11:53:17.746Z,8.70
2018-03-24T11:55:45.189Z,8.70
2018-03-24T11:58:12.656Z,8.70
2018-03-24T12:00:40.123Z,8.70
2018-03-24T12:03:07.559Z,8.60
2018-03-24T12:05:35.018Z,8.60
2018-03-24T12:08:02.462Z,8.60
2018-03-24T12:10:29.952Z,8.70
2018-03-24T12:12:57.391Z,8.70
2018-03-24T12:15:24.825Z,8.70
2018-03-24T12:17:53.054Z,8.90
2018-03-24T12:20:20.523Z,8.80
2018-03-24T12:22:48.744Z,8.80
2018-03-24T12:25:16.954Z,8.80
2018-03-24T12:27:44.427Z,8.80
2018-03-24T12:30:11.855Z,8.70
2018-03-24T12:32:40.094Z,8.80
2018-03-24T12:35:07.535Z,8.80
2018-03-24T12:37:34.982Z,8.80
2018-03-24T12:40:02.429Z,8.80
2018-03-24T12:42:29.905Z,8.70
2018-03-24T12:44:57.355Z,8.70
2018-03-24T12:47:24.831Z,8.70
2018-03-24T12:49:52.277Z,8.70
2018-03-24T12:52:19.723Z,8.70
2018-03-24T12:54:47.165Z,8.80
2018-03-24T12:57:14.615Z,8.80
2018-03-24T12:59:42.084Z,8.90
2018-03-24T13:02:11.035Z,8.90
2018-03-24T13:04:38.494Z,8.90
2018-03-24T13:07:05.922Z,9.00
2018-03-24T13:09:33.382Z,9.00
2018-03-24T13:12:00.825Z,8.90
2018-03-24T13:14:28.282Z,8.90
2018-03-24T13:16:55.754Z,8.90
2018-03-24T13:19:23.224Z,9.00
2018-03-24T13:21:50.988Z,8.90
2018-03-24T13:24:18.433Z,8.90
2018-03-24T13:26:45.877Z,8.90
2018-03-24T13:29:14.138Z,9.00
2018-03-24T13:31:41.605Z,8.90
2018-03-24T13:34:09.081Z,8.90
2018-03-24T13:36:36.530Z,8.80
2018-03-24T13:39:03.982Z,8.90
2018-03-24T13:41:32.219Z,8.90
2018-03-24T13:43:59.673Z,8.90
2018-03-24T13:46:27.163Z,9.00
2018-03-24T13:48:54.593Z,9.10
2018-03-24T13:51:22.021Z,9.10
2018-03-24T13:53:49.480Z,9.10
2018-03-24T13:56:17.786Z,9.00
2018-03-24T13:58:45.204Z,9.00
2018-03-24T14:01:12.654Z,9.10
2018-03-24T14:03:40.141Z,9.20
2018-03-24T14:06:08.361Z,9.20
2018-03-24T14:08:35.823Z,9.20
2018-03-24T14:11:03.264Z,9.20
2018-03-24T14:13:30.694Z,9.20
2018-03-24T14:15:58.192Z,9.20
2018-03-24T14:18:25.587Z,9.20
2018-03-24T14:20:53.043Z,9.20
2018-03-24T14:23:20.488Z,9.20
2018-03-24T14:25:47.953Z,9.30
2018-03-24T14:28:15.428Z,9.20
2018-03-24T14:30:42.891Z,9.20
2018-03-24T14:33:10.344Z,9.30
2018-03-24T14:35:37.807Z,9.30
2018-03-24T14:38:06.486Z,9.40
2018-03-24T14:40:33.926Z,9.40
2018-03-24T14:43:02.162Z,9.20
2018-03-24T14:45:30.662Z,9.20
2018-03-24T14:47:58.127Z,9.20
2018-03-24T14:50:25.579Z,9.30
2018-03-24T14:52:53.046Z,9.30
2018-03-24T14:55:20.497Z,9.30
2018-03-24T14:57:47.976Z,9.20
2018-03-24T15:00:15.435Z,9.40
2018-03-24T15:02:42.919Z,9.40
2018-03-24T15:05:10.368Z,9.40
2018-03-24T15:07:37.828Z,9.40
2018-03-24T15:10:05.280Z,9.40
2018-03-24T15:12:32.823Z,9.30
2018-03-24T15:15:00.216Z,9.20
2018-03-24T15:17:27.680Z,9.20
2018-03-24T15:19:55.214Z,9.10
2018-03-24T15:22:22.665Z,9.20
2018-03-24T15:24:50.124Z,9.10
2018-03-24T15:27:17.573Z,9.10
2018-03-24T15:30:10.529Z,9.20
2018-03-24T15:32:49.742Z,9.00
2018-03-24T15:35:32.729Z,9.10
2018-03-24T15:38:00.180Z,9.10
2018-03-24T15:40:27.637Z,9.30
2018-03-24T15:42:55.083Z,9.10
2018-03-24T15:45:22.546Z,9.30
2018-03-24T15:47:49.987Z,9.10
2018-03-24T15:50:17.467Z,9.20
2018-03-24T15:52:44.915Z,9.30
2018-03-24T15:55:12.379Z,9.20
2018-03-24T15:57:39.843Z,9.30
2018-03-24T16:00:07.322Z,9.20
2018-03-24T16:02:34.784Z,9.30
2018-03-24T16:05:02.268Z,9.20
2018-03-24T16:07:29.714Z,9.30
2018-03-24T16:09:57.163Z,9.50
2018-03-24T16:12:24.614Z,9.30
2018-03-24T16:14:52.064Z,9.10
2018-03-24T16:17:19.523Z,9.20
2018-03-24T16:19:47.731Z,9.40
2018-03-24T16:22:15.188Z,9.40
2018-03-24T16:24:42.663Z,9.40
2018-03-24T16:27:10.129Z,9.20
2018-03-24T16:29:37.587Z,9.40
2018-03-24T16:32:05.042Z,9.30
2018-03-24T16:34:32.539Z,9.30
2018-03-24T16:36:59.985Z,9.30
2018-03-24T16:39:27.494Z,9.40
2018-03-24T16:41:55.754Z,9.40
2018-03-24T16:44:23.234Z,9.40
2018-03-24T16:46:50.679Z,9.30
2018-03-24T16:49:18.141Z,9.20
2018-03-24T16:51:45.600Z,9.20
2018-03-24T16:54:13.038Z,9.30
2018-03-24T16:56:40.491Z,9.20
2018-03-24T16:59:07.948Z,9.30
2018-03-24T17:01:35.396Z,9.30
2018-03-24T17:04:02.872Z,9.30
2018-03-24T17:06:30.358Z,9.20
2018-03-24T17:08:57.819Z,9.20
2018-03-24T17:11:25.287Z,9.10
2018-03-24T17:13:52.757Z,9.00
2018-03-24T17:16:20.215Z,9.00
2018-03-24T17:18:47.698Z,9.00
2018-03-24T17:21:15.143Z,9.00
2018-03-24T17:23:42.591Z,9.00
2018-03-24T17:26:10.064Z,8.90
2018-03-24T17:28:37.507Z,8.90
2018-03-24T17:31:04.958Z,9.10
2018-03-24T17:33:32.424Z,9.00
2018-03-24T17:36:00.649Z,9.30
2018-03-24T17:38:28.095Z,9.30
2018-03-24T17:40:55.541Z,9.50
2018-03-24T17:43:23.006Z,9.30
2018-03-24T17:45:50.464Z,9.10
2018-03-24T17:48:18.036Z,9.10
2018-03-24T17:50:45.378Z,9.00
2018-03-24T17:53:12.860Z,9.10
2018-03-24T17:55:40.366Z,9.00
2018-03-24T17:58:07.805Z,9.00
2018-03-24T18:00:35.325Z,8.70
2018-03-24T18:03:03.538Z,8.90
2018-03-24T18:05:31.015Z,8.90
2018-03-24T18:07:58.544Z,8.60
2018-03-24T18:10:26.002Z,8.60
2018-03-24T18:12:53.464Z,8.50
2018-03-24T18:15:20.932Z,8.70
2018-03-24T18:17:48.490Z,8.90
2018-03-24T18:20:15.936Z,8.90
2018-03-24T18:22:43.405Z,8.80
2018-03-24T18:25:10.887Z,8.80
2018-03-24T18:27:38.343Z,8.80
2018-03-24T18:30:05.788Z,8.70
2018-03-24T18:32:33.241Z,8.80
2018-03-24T18:35:01.472Z,8.80
2018-03-24T18:37:28.915Z,8.80
2018-03-24T18:39:56.382Z,8.70
2018-03-24T18:42:24.670Z,8.50
2018-03-24T18:44:52.114Z,8.60
2018-03-24T18:47:19.578Z,8.70
2018-03-24T18:49:47.034Z,8.70
2018-03-24T18:52:14.490Z,8.70
2018-03-24T18:54:41.966Z,8.70
2018-03-24T18:57:09.407Z,8.70
2018-03-24T18:59:37.627Z,8.40
2018-03-24T19:02:05.086Z,8.40
2018-03-24T19:04:32.533Z,8.40
2018-03-24T19:06:59.974Z,8.20
2018-03-24T19:09:28.213Z,8.20
2018-03-24T19:11:55.675Z,8.20
2018-03-24T19:14:23.125Z,8.30
2018-03-24T19:16:50.554Z,8.30
2018-03-24T19:19:18.189Z,8.20
2018-03-24T19:21:45.637Z,7.80
2018-03-24T19:24:13.091Z,7.90
2018-03-24T19:26:40.547Z,7.70
2018-03-24T19:29:08.015Z,7.40
2018-03-24T19:31:36.259Z,7.70
2018-03-24T19:34:03.724Z,7.70
2018-03-24T19:36:31.161Z,7.60
2018-03-24T19:38:59.397Z,7.90
2018-03-24T19:41:26.900Z,7.90
2018-03-24T19:43:54.341Z,7.80
2018-03-24T19:46:21.814Z,7.80
2018-03-24T19:48:49.335Z,7.70
2018-03-24T19:51:16.780Z,7.50
2018-03-24T19:53:44.234Z,7.50
2018-03-24T19:56:11.679Z,7.50
2018-03-24T19:58:39.907Z,7.30
2018-03-24T20:01:07.365Z,7.30
2018-03-24T20:03:34.813Z,7.10
2018-03-24T20:06:02.276Z,7.30
2018-03-24T20:08:29.736Z,7.20
2018-03-24T20:10:57.163Z,7.50
2018-03-24T20:13:25.415Z,7.30
2018-03-24T20:15:52.849Z,7.20
2018-03-24T20:18:20.305Z,7.20
2018-03-24T20:20:47.758Z,7.30
2018-03-24T20:23:15.197Z,7.20
2018-03-24T20:25:43.416Z,7.10
2018-03-24T20:28:10.855Z,7.10
2018-03-24T20:30:38.312Z,7.20
2018-03-24T20:33:06.542Z,6.90
2018-03-24T20:35:34.021Z,6.90
2018-03-24T20:38:01.542Z,7.10
2018-03-24T20:40:28.962Z,7.20
2018-03-24T20:42:56.530Z,7.20
2018-03-24T20:45:23.983Z,7.40
2018-03-24T20:47:51.420Z,7.00
2018-03-24T20:50:18.866Z,7.00
2018-03-24T20:52:46.307Z,7.30
2018-03-24T20:55:13.767Z,7.30
2018-03-24T20:57:41.214Z,7.20
2018-03-24T21:00:09.444Z,6.70
2018-03-24T21:02:36.882Z,6.70
2018-03-24T21:05:04.326Z,6.60
2018-03-24T21:07:32.547Z,6.60
2018-03-24T21:10:00.012Z,6.50
2018-03-24T21:12:27.496Z,6.80
2018-03-24T21:14:54.962Z,6.70
2018-03-24T21:17:22.413Z,6.80
2018-03-24T21:19:49.875Z,6.80
2018-03-24T21:22:17.324Z,6.40
2018-03-24T21:24:44.786Z,6.40
2018-03-24T21:27:12.240Z,6.50
2018-03-24T21:29:39.715Z,6.50
2018-03-24T21:32:07.186Z,6.50
2018-03-24T21:34:34.651Z,6.50
2018-03-24T21:37:03.225Z,6.40
2018-03-24T21:39:30.785Z,6.40
2018-03-24T21:41:58.418Z,6.40
2018-03-24T21:44:25.906Z,6.40
2018-03-24T21:46:53.374Z,6.30
2018-03-24T21:49:20.891Z,6.10
2018-03-24T21:51:48.335Z,6.10
2018-03-24T21:54:15.802Z,6.30
2018-03-24T21:56:43.270Z,6.50
2018-03-24T21:59:10.723Z,6.40
2018-03-24T22:01:38.256Z,6.40
2018-03-24T22:04:05.696Z,6.60
2018-03-24T22:06:33.154Z,6.30
2018-03-24T22:09:00.616Z,6.20
2018-03-24T22:11:28.080Z,6.00
2018-03-24T22:13:55.517Z,6.30
2018-03-24T22:16:23.738Z,6.30
2018-03-24T22:18:51.200Z,6.30
2018-03-24T22:21:18.730Z,6.50
2018-03-24T22:23:46.136Z,6.40
2018-03-24T22:26:13.606Z,6.40
2018-03-24T22:28:41.056Z,6.20
2018-03-24T22:31:08.515Z,6.40
2018-03-24T22:33:36.000Z,6.50
2018-03-24T22:36:03.465Z,6.40
2018-03-24T22:38:30.919Z,6.10
2018-03-24T22:40:58.373Z,5.80
2018-03-24T22:43:25.805Z,6.10
2018-03-24T22:45:54.014Z,6.20
2018-03-24T22:48:21.473Z,6.20
2018-03-24T22:50:48.944Z,6.20
2018-03-24T22:53:16.382Z,6.20
2018-03-24T22:55:43.821Z,6.10
2018-03-24T22:58:12.035Z,5.80
2018-03-24T23:00:39.489Z,5.80
2018-03-24T23:03:06.934Z,6.00
2018-03-24T23:05:35.149Z,5.90
2018-03-24T23:08:02.640Z,5.90
2018-03-24T23:10:30.090Z,6.00
2018-03-24T23:12:57.538Z,6.10
2018-03-24T23:15:24.987Z,6.10
2018-03-24T23:17:52.429Z,6.10
2018-03-24T23:20:20.642Z,5.90
2018-03-24T23:22:48.099Z,5.90
2018-03-24T23:25:15.545Z,5.80
2018-03-24T23:27:42.986Z,5.90
2018-03-24T23:30:11.201Z,5.80
2018-03-24T23:32:38.628Z,5.70
2018-03-24T23:35:06.838Z,5.80
2018-03-24T23:37:34.321Z,5.80
2018-03-24T23:40:02.587Z,5.80
2018-03-24T23:42:30.808Z,5.80
2018-03-24T23:44:58.267Z,5.80
2018-03-24T23:47:25.706Z,5.60
2018-03-24T23:49:53.162Z,5.80
2018-03-24T23:52:20.601Z,5.70
2018-03-24T23:54:48.038Z,5.60
2018-03-24T23:57:15.475Z,5.50
2018-03-24T23:59:42.922Z,5.50
